sensor_id;sensor_type;location;lat;lon;timestamp;P1;durP1;ratioP1;P2;durP2;ratioP2
48042;SDS011;33988;47.992;8.820;2024-03-22T00:00:22;3.28;;;2.97;;
48042;SDS011;33988;47.992;8.820;2024-03-22T00:02:48;5.38;;;2.65;;
48042;SDS011;33988;47.992;8.820;2024-03-22T00:05:14;3.70;;;2.95;;
48042;SDS011;33988;47.992;8.820;2024-03-22T00:07:41;5.78;;;3.00;;
48042;SDS011;33988;47.992;8.820;2024-03-22T00:10:10;4.85;;;3.08;;
48042;SDS011;33988;47.992;8.820;2024-03-22T00:12:36;4.07;;;3.67;;
48042;SDS011;33988;47.992;8.820;2024-03-22T00:15:02;6.70;;;3.45;;
48042;SDS011;33988;47.992;8.820;2024-03-22T00:17:33;6.07;;;3.65;;
48042;SDS011;33988;47.992;8.820;2024-03-22T00:20:00;3.80;;;3.38;;
48042;SDS011;33988;47.992;8.820;2024-03-22T00:22:28;4.18;;;3.47;;
48042;SDS011;33988;47.992;8.820;2024-03-22T00:24:56;4.43;;;2.83;;
48042;SDS011;33988;47.992;8.820;2024-03-22T00:27:24;4.05;;;3.20;;
48042;SDS011;33988;47.992;8.820;2024-03-22T00:29:50;3.47;;;2.97;;
48042;SDS011;33988;47.992;8.820;2024-03-22T00:32:21;5.32;;;3.05;;
48042;SDS011;33988;47.992;8.820;2024-03-22T00:34:49;2.95;;;2.65;;
48042;SDS011;33988;47.992;8.820;2024-03-22T00:37:17;4.13;;;2.50;;
48042;SDS011;33988;47.992;8.820;2024-03-22T00:39:43;3.53;;;2.67;;
48042;SDS011;33988;47.992;8.820;2024-03-22T00:42:14;6.65;;;3.38;;
48042;SDS011;33988;47.992;8.820;2024-03-22T00:44:42;5.65;;;3.10;;
48042;SDS011;33988;47.992;8.820;2024-03-22T00:47:08;3.50;;;2.90;;
48042;SDS011;33988;47.992;8.820;2024-03-22T00:49:34;4.95;;;3.17;;
48042;SDS011;33988;47.992;8.820;2024-03-22T00:52:03;3.97;;;3.30;;
48042;SDS011;33988;47.992;8.820;2024-03-22T00:54:29;4.60;;;3.13;;
48042;SDS011;33988;47.992;8.820;2024-03-22T00:56:55;4.35;;;3.00;;
48042;SDS011;33988;47.992;8.820;2024-03-22T00:59:21;5.95;;;3.78;;
48042;SDS011;33988;47.992;8.820;2024-03-22T01:01:48;6.15;;;3.10;;
48042;SDS011;33988;47.992;8.820;2024-03-22T01:04:14;3.30;;;2.97;;
48042;SDS011;33988;47.992;8.820;2024-03-22T01:06:40;4.13;;;3.08;;
48042;SDS011;33988;47.992;8.820;2024-03-22T01:09:08;3.65;;;3.28;;
48042;SDS011;33988;47.992;8.820;2024-03-22T01:11:39;4.40;;;3.30;;
48042;SDS011;33988;47.992;8.820;2024-03-22T01:14:05;4.07;;;3.17;;
48042;SDS011;33988;47.992;8.820;2024-03-22T01:16:31;4.30;;;3.33;;
48042;SDS011;33988;47.992;8.820;2024-03-22T01:18:57;4.95;;;3.10;;
48042;SDS011;33988;47.992;8.820;2024-03-22T01:21:23;4.15;;;3.30;;
48042;SDS011;33988;47.992;8.820;2024-03-22T01:23:53;5.55;;;3.38;;
48042;SDS011;33988;47.992;8.820;2024-03-22T01:26:22;6.13;;;3.15;;
48042;SDS011;33988;47.992;8.820;2024-03-22T01:28:48;3.85;;;3.10;;
48042;SDS011;33988;47.992;8.820;2024-03-22T01:31:16;3.42;;;3.13;;
48042;SDS011;33988;47.992;8.820;2024-03-22T01:33:42;4.28;;;2.92;;
48042;SDS011;33988;47.992;8.820;2024-03-22T01:36:08;4.50;;;3.03;;
48042;SDS011;33988;47.992;8.820;2024-03-22T01:38:34;3.88;;;3.03;;
48042;SDS011;33988;47.992;8.820;2024-03-22T01:41:02;3.90;;;3.20;;
48042;SDS011;33988;47.992;8.820;2024-03-22T01:43:32;7.00;;;3.20;;
48042;SDS011;33988;47.992;8.820;2024-03-22T01:46:00;4.38;;;3.30;;
48042;SDS011;33988;47.992;8.820;2024-03-22T01:48:29;5.53;;;3.53;;
48042;SDS011;33988;47.992;8.820;2024-03-22T01:50:58;4.20;;;3.15;;
48042;SDS011;33988;47.992;8.820;2024-03-22T01:53:27;5.53;;;3.88;;
48042;SDS011;33988;47.992;8.820;2024-03-22T01:55:53;6.60;;;4.15;;
48042;SDS011;33988;47.992;8.820;2024-03-22T01:58:24;5.25;;;3.90;;
48042;SDS011;33988;47.992;8.820;2024-03-22T02:00:50;5.85;;;4.10;;
48042;SDS011;33988;47.992;8.820;2024-03-22T02:03:16;4.60;;;3.72;;
48042;SDS011;33988;47.992;8.820;2024-03-22T02:05:44;5.38;;;3.67;;
48042;SDS011;33988;47.992;8.820;2024-03-22T02:08:10;6.65;;;4.05;;
48042;SDS011;33988;47.992;8.820;2024-03-22T02:10:36;5.63;;;3.97;;
48042;SDS011;33988;47.992;8.820;2024-03-22T02:13:02;5.53;;;4.10;;
48042;SDS011;33988;47.992;8.820;2024-03-22T02:15:29;5.05;;;4.10;;
48042;SDS011;33988;47.992;8.820;2024-03-22T02:17:57;4.43;;;3.80;;
48042;SDS011;33988;47.992;8.820;2024-03-22T02:20:28;4.95;;;3.80;;
48042;SDS011;33988;47.992;8.820;2024-03-22T02:22:59;5.45;;;4.07;;
48042;SDS011;33988;47.992;8.820;2024-03-22T02:25:27;6.50;;;4.22;;
48042;SDS011;33988;47.992;8.820;2024-03-22T02:27:55;6.25;;;4.40;;
48042;SDS011;33988;47.992;8.820;2024-03-22T02:30:21;7.50;;;4.47;;
48042;SDS011;33988;47.992;8.820;2024-03-22T02:32:47;5.93;;;4.63;;
48042;SDS011;33988;47.992;8.820;2024-03-22T02:35:18;6.45;;;4.18;;
48042;SDS011;33988;47.992;8.820;2024-03-22T02:37:44;5.30;;;4.18;;
48042;SDS011;33988;47.992;8.820;2024-03-22T02:40:10;6.28;;;4.00;;
48042;SDS011;33988;47.992;8.820;2024-03-22T02:42:37;10.45;;;4.43;;
48042;SDS011;33988;47.992;8.820;2024-03-22T02:45:03;6.00;;;4.25;;
48042;SDS011;33988;47.992;8.820;2024-03-22T02:47:34;4.43;;;3.80;;
48042;SDS011;33988;47.992;8.820;2024-03-22T02:50:05;5.93;;;4.30;;
48042;SDS011;33988;47.992;8.820;2024-03-22T02:52:32;5.97;;;3.83;;
48042;SDS011;33988;47.992;8.820;2024-03-22T02:54:58;5.57;;;3.95;;
48042;SDS011;33988;47.992;8.820;2024-03-22T02:57:23;4.70;;;3.78;;
48042;SDS011;33988;47.992;8.820;2024-03-22T02:59:51;4.88;;;3.83;;
48042;SDS011;33988;47.992;8.820;2024-03-22T03:02:22;7.80;;;4.25;;
48042;SDS011;33988;47.992;8.820;2024-03-22T03:04:48;6.13;;;4.25;;
48042;SDS011;33988;47.992;8.820;2024-03-22T03:07:14;7.28;;;3.72;;
48042;SDS011;33988;47.992;8.820;2024-03-22T03:09:40;6.82;;;4.53;;
48042;SDS011;33988;47.992;8.820;2024-03-22T03:12:06;5.35;;;4.05;;
48042;SDS011;33988;47.992;8.820;2024-03-22T03:14:34;4.78;;;4.18;;
48042;SDS011;33988;47.992;8.820;2024-03-22T03:17:00;6.00;;;4.35;;
48042;SDS011;33988;47.992;8.820;2024-03-22T03:19:26;6.05;;;4.13;;
48042;SDS011;33988;47.992;8.820;2024-03-22T03:21:52;5.60;;;3.97;;
48042;SDS011;33988;47.992;8.820;2024-03-22T03:24:18;6.47;;;4.25;;
48042;SDS011;33988;47.992;8.820;2024-03-22T03:26:47;4.97;;;4.10;;
48042;SDS011;33988;47.992;8.820;2024-03-22T03:29:13;5.20;;;3.85;;
48042;SDS011;33988;47.992;8.820;2024-03-22T03:31:41;5.80;;;4.18;;
48042;SDS011;33988;47.992;8.820;2024-03-22T03:34:07;6.93;;;4.47;;
48042;SDS011;33988;47.992;8.820;2024-03-22T03:36:35;6.35;;;4.22;;
48042;SDS011;33988;47.992;8.820;2024-03-22T03:39:04;5.75;;;4.53;;
48042;SDS011;33988;47.992;8.820;2024-03-22T03:41:30;6.28;;;3.75;;
48042;SDS011;33988;47.992;8.820;2024-03-22T03:43:59;5.57;;;3.70;;
48042;SDS011;33988;47.992;8.820;2024-03-22T03:46:25;5.13;;;4.20;;
48042;SDS011;33988;47.992;8.820;2024-03-22T03:48:51;6.93;;;4.50;;
48042;SDS011;33988;47.992;8.820;2024-03-22T03:51:19;5.75;;;4.05;;
48042;SDS011;33988;47.992;8.820;2024-03-22T03:53:47;6.13;;;3.93;;
48042;SDS011;33988;47.992;8.820;2024-03-22T03:56:13;5.85;;;3.95;;
48042;SDS011;33988;47.992;8.820;2024-03-22T03:58:39;6.28;;;4.20;;
48042;SDS011;33988;47.992;8.820;2024-03-22T04:01:08;6.50;;;4.50;;
48042;SDS011;33988;47.992;8.820;2024-03-22T04:03:37;6.80;;;4.30;;
48042;SDS011;33988;47.992;8.820;2024-03-22T04:06:06;6.78;;;4.30;;
48042;SDS011;33988;47.992;8.820;2024-03-22T04:08:33;5.40;;;4.13;;
48042;SDS011;33988;47.992;8.820;2024-03-22T04:10:59;4.97;;;3.97;;
48042;SDS011;33988;47.992;8.820;2024-03-22T04:13:25;6.03;;;4.68;;
48042;SDS011;33988;47.992;8.820;2024-03-22T04:15:53;5.60;;;3.97;;
48042;SDS011;33988;47.992;8.820;2024-03-22T04:18:26;5.80;;;4.20;;
48042;SDS011;33988;47.992;8.820;2024-03-22T04:20:53;6.45;;;3.90;;
48042;SDS011;33988;47.992;8.820;2024-03-22T04:23:23;6.85;;;3.83;;
48042;SDS011;33988;47.992;8.820;2024-03-22T04:28:26;5.68;;;4.22;;
48042;SDS011;33988;47.992;8.820;2024-03-22T04:33:30;7.45;;;4.03;;
48042;SDS011;33988;47.992;8.820;2024-03-22T04:35:59;5.32;;;3.92;;
48042;SDS011;33988;47.992;8.820;2024-03-22T04:38:28;6.15;;;4.47;;
48042;SDS011;33988;47.992;8.820;2024-03-22T04:40:55;5.70;;;4.25;;
48042;SDS011;33988;47.992;8.820;2024-03-22T04:43:24;5.07;;;3.88;;
48042;SDS011;33988;47.992;8.820;2024-03-22T04:45:50;5.15;;;3.78;;
48042;SDS011;33988;47.992;8.820;2024-03-22T04:48:22;5.80;;;4.38;;
48042;SDS011;33988;47.992;8.820;2024-03-22T04:50:49;4.55;;;3.95;;
48042;SDS011;33988;47.992;8.820;2024-03-22T04:53:20;5.45;;;3.95;;
48042;SDS011;33988;47.992;8.820;2024-03-22T04:55:49;6.28;;;4.47;;
48042;SDS011;33988;47.992;8.820;2024-03-22T04:58:18;5.40;;;4.72;;
48042;SDS011;33988;47.992;8.820;2024-03-22T05:00:48;6.50;;;4.55;;
48042;SDS011;33988;47.992;8.820;2024-03-22T05:03:15;6.45;;;4.50;;
48042;SDS011;33988;47.992;8.820;2024-03-22T05:05:42;5.78;;;4.78;;
48042;SDS011;33988;47.992;8.820;2024-03-22T05:08:08;7.03;;;4.43;;
48042;SDS011;33988;47.992;8.820;2024-03-22T05:10:35;8.38;;;4.60;;
48042;SDS011;33988;47.992;8.820;2024-03-22T05:13:01;6.15;;;4.20;;
48042;SDS011;33988;47.992;8.820;2024-03-22T05:15:29;6.28;;;4.55;;
48042;SDS011;33988;47.992;8.820;2024-03-22T05:17:56;5.68;;;4.38;;
48042;SDS011;33988;47.992;8.820;2024-03-22T05:20:24;6.07;;;4.05;;
48042;SDS011;33988;47.992;8.820;2024-03-22T05:22:51;8.60;;;4.35;;
48042;SDS011;33988;47.992;8.820;2024-03-22T05:25:17;9.25;;;4.38;;
48042;SDS011;33988;47.992;8.820;2024-03-22T05:27:43;7.68;;;4.13;;
48042;SDS011;33988;47.992;8.820;2024-03-22T05:30:12;4.90;;;4.03;;
48042;SDS011;33988;47.992;8.820;2024-03-22T05:32:39;6.32;;;4.30;;
48042;SDS011;33988;47.992;8.820;2024-03-22T05:35:08;5.72;;;4.55;;
48042;SDS011;33988;47.992;8.820;2024-03-22T05:37:37;7.00;;;4.65;;
48042;SDS011;33988;47.992;8.820;2024-03-22T05:40:03;5.93;;;4.32;;
48042;SDS011;33988;47.992;8.820;2024-03-22T05:42:32;6.18;;;4.07;;
48042;SDS011;33988;47.992;8.820;2024-03-22T05:44:58;5.55;;;4.22;;
48042;SDS011;33988;47.992;8.820;2024-03-22T05:47:26;6.80;;;4.68;;
48042;SDS011;33988;47.992;8.820;2024-03-22T05:49:52;7.28;;;4.72;;
48042;SDS011;33988;47.992;8.820;2024-03-22T05:52:20;7.15;;;4.70;;
48042;SDS011;33988;47.992;8.820;2024-03-22T05:54:46;7.40;;;5.32;;
48042;SDS011;33988;47.992;8.820;2024-03-22T05:57:12;8.10;;;5.40;;
48042;SDS011;33988;47.992;8.820;2024-03-22T05:59:38;9.88;;;5.75;;
48042;SDS011;33988;47.992;8.820;2024-03-22T06:02:04;11.13;;;5.25;;
48042;SDS011;33988;47.992;8.820;2024-03-22T06:04:33;7.13;;;5.20;;
48042;SDS011;33988;47.992;8.820;2024-03-22T06:07:01;7.70;;;5.20;;
48042;SDS011;33988;47.992;8.820;2024-03-22T06:09:32;6.53;;;5.00;;
48042;SDS011;33988;47.992;8.820;2024-03-22T06:12:14;7.78;;;4.85;;
48042;SDS011;33988;47.992;8.820;2024-03-22T06:14:41;8.18;;;4.45;;
48042;SDS011;33988;47.992;8.820;2024-03-22T06:17:10;6.63;;;4.88;;
48042;SDS011;33988;47.992;8.820;2024-03-22T06:19:39;9.02;;;4.93;;
48042;SDS011;33988;47.992;8.820;2024-03-22T06:22:05;6.35;;;4.55;;
48042;SDS011;33988;47.992;8.820;2024-03-22T06:24:31;8.20;;;5.10;;
48042;SDS011;33988;47.992;8.820;2024-03-22T06:26:57;11.80;;;5.10;;
48042;SDS011;33988;47.992;8.820;2024-03-22T06:29:23;6.53;;;4.60;;
48042;SDS011;33988;47.992;8.820;2024-03-22T06:31:49;6.90;;;4.55;;
48042;SDS011;33988;47.992;8.820;2024-03-22T06:34:18;6.07;;;4.63;;
48042;SDS011;33988;47.992;8.820;2024-03-22T06:36:44;7.63;;;5.20;;
48042;SDS011;33988;47.992;8.820;2024-03-22T06:39:09;6.07;;;4.80;;
48042;SDS011;33988;47.992;8.820;2024-03-22T06:41:39;5.47;;;4.47;;
48042;SDS011;33988;47.992;8.820;2024-03-22T06:44:06;6.13;;;4.38;;
48042;SDS011;33988;47.992;8.820;2024-03-22T06:46:37;8.07;;;4.57;;
48042;SDS011;33988;47.992;8.820;2024-03-22T06:49:05;7.28;;;4.90;;
48042;SDS011;33988;47.992;8.820;2024-03-22T06:51:33;7.32;;;4.97;;
48042;SDS011;33988;47.992;8.820;2024-03-22T06:53:59;6.03;;;5.20;;
48042;SDS011;33988;47.992;8.820;2024-03-22T06:56:25;7.38;;;5.22;;
48042;SDS011;33988;47.992;8.820;2024-03-22T06:58:53;6.35;;;5.07;;
48042;SDS011;33988;47.992;8.820;2024-03-22T07:01:19;7.68;;;5.90;;
48042;SDS011;33988;47.992;8.820;2024-03-22T07:03:46;8.23;;;5.68;;
48042;SDS011;33988;47.992;8.820;2024-03-22T07:06:13;8.45;;;5.55;;
48042;SDS011;33988;47.992;8.820;2024-03-22T07:08:40;7.85;;;5.95;;
48042;SDS011;33988;47.992;8.820;2024-03-22T07:11:06;7.95;;;5.88;;
48042;SDS011;33988;47.992;8.820;2024-03-22T07:13:33;7.55;;;6.25;;
48042;SDS011;33988;47.992;8.820;2024-03-22T07:16:02;10.65;;;7.88;;
48042;SDS011;33988;47.992;8.820;2024-03-22T07:18:29;9.25;;;7.05;;
48042;SDS011;33988;47.992;8.820;2024-03-22T07:20:58;7.85;;;6.53;;
48042;SDS011;33988;47.992;8.820;2024-03-22T07:23:27;7.35;;;5.65;;
48042;SDS011;33988;47.992;8.820;2024-03-22T07:25:53;7.38;;;5.10;;
48042;SDS011;33988;47.992;8.820;2024-03-22T07:28:25;6.35;;;5.05;;
48042;SDS011;33988;47.992;8.820;2024-03-22T07:30:53;8.27;;;5.00;;
48042;SDS011;33988;47.992;8.820;2024-03-22T07:33:20;8.10;;;5.18;;
48042;SDS011;33988;47.992;8.820;2024-03-22T07:35:47;10.63;;;5.30;;
48042;SDS011;33988;47.992;8.820;2024-03-22T07:38:13;5.82;;;4.65;;
48042;SDS011;33988;47.992;8.820;2024-03-22T07:40:38;6.38;;;4.35;;
48042;SDS011;33988;47.992;8.820;2024-03-22T07:43:05;7.05;;;4.50;;
48042;SDS011;33988;47.992;8.820;2024-03-22T07:45:34;7.40;;;5.05;;
48042;SDS011;33988;47.992;8.820;2024-03-22T07:48:00;6.25;;;5.10;;
48042;SDS011;33988;47.992;8.820;2024-03-22T07:50:29;8.35;;;5.53;;
48042;SDS011;33988;47.992;8.820;2024-03-22T07:52:57;6.60;;;5.05;;
48042;SDS011;33988;47.992;8.820;2024-03-22T07:55:23;8.25;;;5.25;;
48042;SDS011;33988;47.992;8.820;2024-03-22T07:57:51;7.18;;;4.63;;
48042;SDS011;33988;47.992;8.820;2024-03-22T08:00:17;7.20;;;5.20;;
48042;SDS011;33988;47.992;8.820;2024-03-22T08:02:46;5.70;;;4.85;;
48042;SDS011;33988;47.992;8.820;2024-03-22T08:05:12;7.75;;;4.97;;
48042;SDS011;33988;47.992;8.820;2024-03-22T08:07:38;6.65;;;5.18;;
48042;SDS011;33988;47.992;8.820;2024-03-22T08:10:04;7.57;;;4.53;;
48042;SDS011;33988;47.992;8.820;2024-03-22T08:12:30;7.40;;;4.53;;
48042;SDS011;33988;47.992;8.820;2024-03-22T08:14:59;8.00;;;4.50;;
48042;SDS011;33988;47.992;8.820;2024-03-22T08:17:25;6.18;;;4.57;;
48042;SDS011;33988;47.992;8.820;2024-03-22T08:19:55;7.38;;;5.13;;
48042;SDS011;33988;47.992;8.820;2024-03-22T08:22:23;7.90;;;4.57;;
48042;SDS011;33988;47.992;8.820;2024-03-22T08:24:52;7.57;;;4.55;;
48042;SDS011;33988;47.992;8.820;2024-03-22T08:27:17;8.40;;;4.32;;
48042;SDS011;33988;47.992;8.820;2024-03-22T08:29:46;6.47;;;5.03;;
48042;SDS011;33988;47.992;8.820;2024-03-22T08:32:12;7.55;;;4.75;;
48042;SDS011;33988;47.992;8.820;2024-03-22T08:34:38;6.43;;;4.32;;
48042;SDS011;33988;47.992;8.820;2024-03-22T08:37:04;8.18;;;4.50;;
48042;SDS011;33988;47.992;8.820;2024-03-22T08:39:30;6.10;;;4.80;;
48042;SDS011;33988;47.992;8.820;2024-03-22T08:41:56;5.80;;;4.47;;
48042;SDS011;33988;47.992;8.820;2024-03-22T08:44:24;5.40;;;3.83;;
48042;SDS011;33988;47.992;8.820;2024-03-22T08:46:53;5.57;;;4.15;;
48042;SDS011;33988;47.992;8.820;2024-03-22T08:49:21;5.30;;;3.70;;
48042;SDS011;33988;47.992;8.820;2024-03-22T08:51:52;3.90;;;3.45;;
48042;SDS011;33988;47.992;8.820;2024-03-22T08:54:20;5.00;;;3.33;;
48042;SDS011;33988;47.992;8.820;2024-03-22T08:56:46;3.90;;;3.50;;
48042;SDS011;33988;47.992;8.820;2024-03-22T08:59:12;4.05;;;3.10;;
48042;SDS011;33988;47.992;8.820;2024-03-22T09:01:42;5.20;;;2.90;;
48042;SDS011;33988;47.992;8.820;2024-03-22T09:04:08;4.70;;;3.28;;
48042;SDS011;33988;47.992;8.820;2024-03-22T09:06:37;5.63;;;3.03;;
48042;SDS011;33988;47.992;8.820;2024-03-22T09:09:05;4.82;;;3.33;;
48042;SDS011;33988;47.992;8.820;2024-03-22T09:11:34;3.90;;;2.83;;
48042;SDS011;33988;47.992;8.820;2024-03-22T09:14:03;4.32;;;2.92;;
48042;SDS011;33988;47.992;8.820;2024-03-22T09:16:31;3.40;;;2.65;;
48042;SDS011;33988;47.992;8.820;2024-03-22T09:18:58;3.15;;;2.55;;
48042;SDS011;33988;47.992;8.820;2024-03-22T09:21:25;2.75;;;2.30;;
48042;SDS011;33988;47.992;8.820;2024-03-22T09:23:51;3.70;;;2.60;;
48042;SDS011;33988;47.992;8.820;2024-03-22T09:26:17;3.20;;;2.55;;
48042;SDS011;33988;47.992;8.820;2024-03-22T09:28:51;3.75;;;2.60;;
48042;SDS011;33988;47.992;8.820;2024-03-22T09:31:20;2.90;;;2.25;;
48042;SDS011;33988;47.992;8.820;2024-03-22T09:33:46;3.38;;;2.38;;
48042;SDS011;33988;47.992;8.820;2024-03-22T09:36:14;4.40;;;2.60;;
48042;SDS011;33988;47.992;8.820;2024-03-22T09:38:42;4.15;;;3.05;;
48042;SDS011;33988;47.992;8.820;2024-03-22T09:41:10;2.90;;;2.35;;
48042;SDS011;33988;47.992;8.820;2024-03-22T09:43:38;3.25;;;2.47;;
48042;SDS011;33988;47.992;8.820;2024-03-22T09:46:12;3.40;;;2.38;;
48042;SDS011;33988;47.992;8.820;2024-03-22T09:48:39;2.47;;;2.28;;
48042;SDS011;33988;47.992;8.820;2024-03-22T09:51:07;2.35;;;2.15;;
48042;SDS011;33988;47.992;8.820;2024-03-22T09:53:34;3.08;;;2.33;;
48042;SDS011;33988;47.992;8.820;2024-03-22T09:56:03;3.63;;;2.15;;
48042;SDS011;33988;47.992;8.820;2024-03-22T09:58:30;5.03;;;2.38;;
48042;SDS011;33988;47.992;8.820;2024-03-22T10:00:56;2.53;;;2.15;;
48042;SDS011;33988;47.992;8.820;2024-03-22T10:03:25;2.35;;;2.00;;
48042;SDS011;33988;47.992;8.820;2024-03-22T10:05:54;2.22;;;1.90;;
48042;SDS011;33988;47.992;8.820;2024-03-22T10:08:20;2.22;;;1.83;;
48042;SDS011;33988;47.992;8.820;2024-03-22T10:10:47;1.92;;;1.70;;
48042;SDS011;33988;47.992;8.820;2024-03-22T10:13:16;2.58;;;1.80;;
48042;SDS011;33988;47.992;8.820;2024-03-22T10:15:49;2.72;;;1.90;;
48042;SDS011;33988;47.992;8.820;2024-03-22T10:18:16;2.47;;;1.70;;
48042;SDS011;33988;47.992;8.820;2024-03-22T10:20:45;2.83;;;1.70;;
48042;SDS011;33988;47.992;8.820;2024-03-22T10:23:11;2.72;;;1.65;;
48042;SDS011;33988;47.992;8.820;2024-03-22T10:25:37;1.90;;;1.60;;
48042;SDS011;33988;47.992;8.820;2024-03-22T10:28:03;4.28;;;1.73;;
48042;SDS011;33988;47.992;8.820;2024-03-22T10:30:32;2.60;;;1.70;;
48042;SDS011;33988;47.992;8.820;2024-03-22T10:33:02;3.38;;;1.63;;
48042;SDS011;33988;47.992;8.820;2024-03-22T10:35:29;3.00;;;1.65;;
48042;SDS011;33988;47.992;8.820;2024-03-22T10:37:55;1.83;;;1.48;;
48042;SDS011;33988;47.992;8.820;2024-03-22T10:40:21;3.22;;;1.77;;
48042;SDS011;33988;47.992;8.820;2024-03-22T10:42:48;1.65;;;1.48;;
48042;SDS011;33988;47.992;8.820;2024-03-22T10:45:16;3.13;;;1.70;;
48042;SDS011;33988;47.992;8.820;2024-03-22T10:47:50;2.72;;;1.50;;
48042;SDS011;33988;47.992;8.820;2024-03-22T10:50:22;3.33;;;1.83;;
48042;SDS011;33988;47.992;8.820;2024-03-22T10:55:28;2.13;;;1.67;;
48042;SDS011;33988;47.992;8.820;2024-03-22T10:58:17;1.67;;;1.52;;
48042;SDS011;33988;47.992;8.820;2024-03-22T11:00:53;2.20;;;1.83;;
48042;SDS011;33988;47.992;8.820;2024-03-22T11:03:21;1.67;;;1.50;;
48042;SDS011;33988;47.992;8.820;2024-03-22T11:05:54;2.13;;;1.50;;
48042;SDS011;33988;47.992;8.820;2024-03-22T11:10:54;1.85;;;1.55;;
48042;SDS011;33988;47.992;8.820;2024-03-22T11:13:22;2.70;;;1.67;;
48042;SDS011;33988;47.992;8.820;2024-03-22T11:15:51;3.70;;;1.73;;
48042;SDS011;33988;47.992;8.820;2024-03-22T11:18:19;2.00;;;1.67;;
48042;SDS011;33988;47.992;8.820;2024-03-22T11:20:45;2.95;;;1.70;;
48042;SDS011;33988;47.992;8.820;2024-03-22T11:23:11;2.38;;;1.60;;
48042;SDS011;33988;47.992;8.820;2024-03-22T11:25:38;2.80;;;1.67;;
48042;SDS011;33988;47.992;8.820;2024-03-22T11:28:04;3.33;;;1.63;;
48042;SDS011;33988;47.992;8.820;2024-03-22T11:30:31;5.50;;;1.60;;
48042;SDS011;33988;47.992;8.820;2024-03-22T11:33:04;3.65;;;1.90;;
48042;SDS011;33988;47.992;8.820;2024-03-22T11:35:35;2.50;;;1.77;;
48042;SDS011;33988;47.992;8.820;2024-03-22T11:38:07;5.20;;;1.75;;
48042;SDS011;33988;47.992;8.820;2024-03-22T11:40:33;2.97;;;1.77;;
48042;SDS011;33988;47.992;8.820;2024-03-22T11:43:02;2.08;;;1.70;;
48042;SDS011;33988;47.992;8.820;2024-03-22T11:45:29;1.88;;;1.60;;
48042;SDS011;33988;47.992;8.820;2024-03-22T11:48:01;2.55;;;1.80;;
48042;SDS011;33988;47.992;8.820;2024-03-22T11:50:28;4.32;;;1.90;;
48042;SDS011;33988;47.992;8.820;2024-03-22T11:52:54;2.35;;;1.95;;
48042;SDS011;33988;47.992;8.820;2024-03-22T11:55:21;4.00;;;2.10;;
48042;SDS011;33988;47.992;8.820;2024-03-22T11:57:48;2.50;;;1.63;;
48042;SDS011;33988;47.992;8.820;2024-03-22T12:00:14;2.72;;;2.10;;
48042;SDS011;33988;47.992;8.820;2024-03-22T12:02:43;3.20;;;2.03;;
48042;SDS011;33988;47.992;8.820;2024-03-22T12:05:11;3.10;;;2.17;;
48042;SDS011;33988;47.992;8.820;2024-03-22T12:07:39;3.08;;;2.25;;
48042;SDS011;33988;47.992;8.820;2024-03-22T12:10:06;3.58;;;2.40;;
48042;SDS011;33988;47.992;8.820;2024-03-22T12:12:32;2.90;;;1.95;;
48042;SDS011;33988;47.992;8.820;2024-03-22T12:15:02;2.83;;;2.03;;
48042;SDS011;33988;47.992;8.820;2024-03-22T12:17:31;2.47;;;1.80;;
48042;SDS011;33988;47.992;8.820;2024-03-22T12:20:01;1.93;;;1.73;;
48042;SDS011;33988;47.992;8.820;2024-03-22T12:22:29;3.65;;;1.60;;
48042;SDS011;33988;47.992;8.820;2024-03-22T12:24:56;3.83;;;2.10;;
48042;SDS011;33988;47.992;8.820;2024-03-22T12:27:22;2.05;;;1.65;;
48042;SDS011;33988;47.992;8.820;2024-03-22T12:29:51;3.17;;;1.98;;
48042;SDS011;33988;47.992;8.820;2024-03-22T12:32:17;1.90;;;1.70;;
48042;SDS011;33988;47.992;8.820;2024-03-22T12:34:47;1.75;;;1.65;;
48042;SDS011;33988;47.992;8.820;2024-03-22T12:37:13;4.13;;;1.90;;
48042;SDS011;33988;47.992;8.820;2024-03-22T12:39:40;1.35;;;1.25;;
48042;SDS011;33988;47.992;8.820;2024-03-22T12:42:08;2.22;;;1.80;;
48042;SDS011;33988;47.992;8.820;2024-03-22T12:44:39;2.35;;;1.52;;
48042;SDS011;33988;47.992;8.820;2024-03-22T12:47:05;1.88;;;1.60;;
48042;SDS011;33988;47.992;8.820;2024-03-22T12:49:31;2.20;;;2.00;;
48042;SDS011;33988;47.992;8.820;2024-03-22T12:51:57;2.17;;;1.52;;
48042;SDS011;33988;47.992;8.820;2024-03-22T12:54:23;1.70;;;1.58;;
48042;SDS011;33988;47.992;8.820;2024-03-22T12:56:50;2.40;;;1.67;;
48042;SDS011;33988;47.992;8.820;2024-03-22T12:59:16;2.47;;;1.70;;
48042;SDS011;33988;47.992;8.820;2024-03-22T13:01:42;2.53;;;1.65;;
48042;SDS011;33988;47.992;8.820;2024-03-22T13:04:11;1.98;;;1.40;;
48042;SDS011;33988;47.992;8.820;2024-03-22T13:06:37;2.42;;;1.55;;
48042;SDS011;33988;47.992;8.820;2024-03-22T13:09:03;1.92;;;1.65;;
48042;SDS011;33988;47.992;8.820;2024-03-22T13:11:31;2.00;;;1.67;;
48042;SDS011;33988;47.992;8.820;2024-03-22T13:14:00;2.13;;;1.45;;
48042;SDS011;33988;47.992;8.820;2024-03-22T13:16:26;2.10;;;1.52;;
48042;SDS011;33988;47.992;8.820;2024-03-22T13:18:55;2.80;;;1.40;;
48042;SDS011;33988;47.992;8.820;2024-03-22T13:21:21;4.85;;;1.80;;
48042;SDS011;33988;47.992;8.820;2024-03-22T13:23:49;5.82;;;1.42;;
48042;SDS011;33988;47.992;8.820;2024-03-22T13:26:19;1.88;;;1.63;;
48042;SDS011;33988;47.992;8.820;2024-03-22T13:28:48;2.45;;;1.60;;
48042;SDS011;33988;47.992;8.820;2024-03-22T13:31:14;2.42;;;1.40;;
48042;SDS011;33988;47.992;8.820;2024-03-22T13:33:43;3.08;;;1.35;;
48042;SDS011;33988;47.992;8.820;2024-03-22T13:36:11;2.72;;;1.52;;
48042;SDS011;33988;47.992;8.820;2024-03-22T13:38:39;2.13;;;1.42;;
48042;SDS011;33988;47.992;8.820;2024-03-22T13:41:09;1.80;;;1.45;;
48042;SDS011;33988;47.992;8.820;2024-03-22T13:43:40;2.33;;;1.48;;
48042;SDS011;33988;47.992;8.820;2024-03-22T13:46:09;2.55;;;1.30;;
48042;SDS011;33988;47.992;8.820;2024-03-22T13:48:40;1.30;;;1.20;;
48042;SDS011;33988;47.992;8.820;2024-03-22T13:51:06;1.70;;;1.38;;
48042;SDS011;33988;47.992;8.820;2024-03-22T13:53:32;2.10;;;1.40;;
48042;SDS011;33988;47.992;8.820;2024-03-22T13:55:58;2.20;;;1.45;;
48042;SDS011;33988;47.992;8.820;2024-03-22T13:58:24;2.28;;;1.55;;
48042;SDS011;33988;47.992;8.820;2024-03-22T14:00:53;1.75;;;1.65;;
48042;SDS011;33988;47.992;8.820;2024-03-22T14:03:21;2.15;;;1.63;;
48042;SDS011;33988;47.992;8.820;2024-03-22T14:05:47;3.60;;;1.50;;
48042;SDS011;33988;47.992;8.820;2024-03-22T14:08:13;4.30;;;1.58;;
48042;SDS011;33988;47.992;8.820;2024-03-22T14:10:41;1.65;;;1.40;;
48042;SDS011;33988;47.992;8.820;2024-03-22T14:13:12;3.03;;;1.90;;
48042;SDS011;33988;47.992;8.820;2024-03-22T14:15:38;2.30;;;1.75;;
48042;SDS011;33988;47.992;8.820;2024-03-22T14:18:07;1.55;;;1.35;;
48042;SDS011;33988;47.992;8.820;2024-03-22T14:20:33;4.45;;;1.90;;
48042;SDS011;33988;47.992;8.820;2024-03-22T14:22:59;2.03;;;1.83;;
48042;SDS011;33988;47.992;8.820;2024-03-22T14:25:29;3.05;;;1.73;;
48042;SDS011;33988;47.992;8.820;2024-03-22T14:27:59;4.30;;;1.75;;
48042;SDS011;33988;47.992;8.820;2024-03-22T14:30:25;2.50;;;1.55;;
48042;SDS011;33988;47.992;8.820;2024-03-22T14:32:52;1.75;;;1.60;;
48042;SDS011;33988;47.992;8.820;2024-03-22T14:35:20;1.77;;;1.58;;
48042;SDS011;33988;47.992;8.820;2024-03-22T14:37:49;2.67;;;1.52;;
48042;SDS011;33988;47.992;8.820;2024-03-22T14:40:18;1.45;;;1.27;;
48042;SDS011;33988;47.992;8.820;2024-03-22T14:42:47;1.45;;;1.02;;
48042;SDS011;33988;47.992;8.820;2024-03-22T14:45:15;1.65;;;1.20;;
48042;SDS011;33988;47.992;8.820;2024-03-22T14:47:46;2.72;;;1.40;;
48042;SDS011;33988;47.992;8.820;2024-03-22T14:50:12;1.40;;;1.15;;
48042;SDS011;33988;47.992;8.820;2024-03-22T14:52:38;1.83;;;1.17;;
48042;SDS011;33988;47.992;8.820;2024-03-22T14:55:05;2.13;;;1.15;;
48042;SDS011;33988;47.992;8.820;2024-03-22T14:57:34;1.20;;;1.00;;
48042;SDS011;33988;47.992;8.820;2024-03-22T15:00:03;1.10;;;0.90;;